createdAt,value
2023-04-05T00:00:24.472Z,61.90
2023-04-05T00:05:50.215Z,60.30
2023-04-05T00:10:54.202Z,62.20
2023-04-05T00:15:58.518Z,56.20
2023-04-05T00:21:07.246Z,60.00
2023-04-05T00:26:15.214Z,65.70
2023-04-05T00:31:20.158Z,68.60
2023-04-05T00:36:23.805Z,62.40
2023-04-05T00:41:27.509Z,62.80
2023-04-05T00:46:34.730Z,63.50
2023-04-05T00:51:39.034Z,58.80
2023-04-05T00:56:46.299Z,56.90
2023-04-05T01:02:11.969Z,53.30
2023-04-05T01:07:54.215Z,53.90
2023-04-05T01:12:58.579Z,56.20
2023-04-05T01:18:02.357Z,60.60
2023-04-05T01:23:31.555Z,56.50
2023-04-05T01:28:43.774Z,64.40
2023-04-05T01:39:21.452Z,58.60
2023-04-05T01:44:24.809Z,68.30
2023-04-05T01:49:41.191Z,59.40
2023-04-05T01:54:44.978Z,56.70
2023-04-05T01:59:48.621Z,60.30
2023-04-05T02:04:52.645Z,60.30
2023-04-05T02:09:56.286Z,63.30
2023-04-05T02:14:59.907Z,60.00
2023-04-05T02:20:06.385Z,60.00
2023-04-05T02:25:10.164Z,61.30
2023-04-05T02:30:15.692Z,70.50
2023-04-05T02:35:25.420Z,67.60
2023-04-05T02:40:28.958Z,73.40
2023-04-05T02:45:47.160Z,70.30
2023-04-05T02:50:56.442Z,65.20
2023-04-05T02:56:02.686Z,67.90
2023-04-05T03:01:07.669Z,69.30
2023-04-05T03:06:11.886Z,67.40
2023-04-05T03:11:17.848Z,63.60
2023-04-05T03:16:24.665Z,65.90
2023-04-05T03:21:31.078Z,61.10
2023-04-05T03:26:50.462Z,64.10
2023-04-05T03:32:21.544Z,80.40
2023-04-05T03:37:43.702Z,81.40
2023-04-05T03:42:49.720Z,67.20
2023-04-05T03:48:09.947Z,72.90
2023-04-05T03:53:17.501Z,71.90
2023-04-05T03:58:25.767Z,81.50
2023-04-05T04:03:31.002Z,73.10
2023-04-05T04:08:47.699Z,69.30
2023-04-05T04:14:01.891Z,74.70
2023-04-05T04:19:43.978Z,75.80
2023-04-05T04:31:28.568Z,66.50
2023-04-05T04:37:43.696Z,88.90
2023-04-05T04:43:10.456Z,81.70
2023-04-05T04:48:33.986Z,75.00
2023-04-05T04:54:31.235Z,80.70
2023-04-05T04:59:47.635Z,69.80
2023-04-05T05:04:53.646Z,82.00
2023-04-05T05:10:01.156Z,81.30
2023-04-05T05:15:05.024Z,74.00
2023-04-05T05:20:13.040Z,77.40
2023-04-05T05:25:21.898Z,83.40
2023-04-05T05:30:26.153Z,77.90
2023-04-05T05:35:29.477Z,75.90
2023-04-05T05:40:33.162Z,80.80
2023-04-05T05:45:36.899Z,76.40
2023-04-05T05:50:40.947Z,86.10
2023-04-05T05:55:44.471Z,79.20
2023-04-05T06:00:50.527Z,79.10
2023-04-05T06:05:58.828Z,79.20
2023-04-05T06:11:02.275Z,74.80
2023-04-05T06:16:05.948Z,89.20
2023-04-05T06:21:09.350Z,98.20
2023-04-05T06:26:24.453Z,90.40
2023-04-05T06:31:48.592Z,81.10
2023-04-05T06:36:52.231Z,78.10
2023-04-05T06:42:06.643Z,87.10
2023-04-05T06:47:14.983Z,84.80
2023-04-05T06:52:21.064Z,82.30
2023-04-05T06:57:27.255Z,73.80
2023-04-05T07:02:51.193Z,71.50
2023-04-05T07:07:54.674Z,70.30
2023-04-05T07:12:58.320Z,66.50
2023-04-05T07:18:08.995Z,57.50
2023-04-05T07:23:12.372Z,62.10
2023-04-05T07:28:58.929Z,66.00
2023-04-05T07:34:15.099Z,63.80
2023-04-05T07:39:38.727Z,65.90
2023-04-05T07:44:44.751Z,59.10
2023-04-05T07:49:59.420Z,60.60
2023-04-05T07:55:07.434Z,62.00
2023-04-05T08:00:53.498Z,54.70
2023-04-05T08:06:20.366Z,53.00
2023-04-05T08:11:37.955Z,47.40
2023-04-05T08:16:41.348Z,42.00
2023-04-05T08:22:45.358Z,40.80
2023-04-05T08:28:19.575Z,29.60
2023-04-05T08:33:31.238Z,33.80
2023-04-05T08:38:49.229Z,37.10
2023-04-05T08:44:02.963Z,25.70
2023-04-05T08:49:08.618Z,26.50
2023-04-05T08:54:15.688Z,20.30
2023-04-05T08:59:26.372Z,19.90
2023-04-05T09:04:35.401Z,18.50
2023-04-05T09:09:42.548Z,16.60
2023-04-05T09:15:13.764Z,17.10
2023-04-05T09:20:27.997Z,19.80
2023-04-05T09:26:23.300Z,20.80
2023-04-05T09:31:35.998Z,16.00
2023-04-05T09:36:45.920Z,15.60
2023-04-05T09:42:23.140Z,15.60
2023-04-05T09:47:32.825Z,15.70
2023-04-05T09:52:42.296Z,15.30
2023-04-05T09:57:48.648Z,11.60
2023-04-05T10:03:07.862Z,13.80
2023-04-05T10:08:17.266Z,16.00
2023-04-05T10:13:41.591Z,13.50
2023-04-05T10:19:12.942Z,14.60
2023-04-05T10:24:36.778Z,14.30
2023-04-05T10:30:09.118Z,10.00
2023-04-05T10:35:20.586Z,6.70
2023-04-05T10:40:31.347Z,7.80
2023-04-05T10:45:37.489Z,8.20
2023-04-05T10:50:42.335Z,8.10
2023-04-05T10:55:58.495Z,10.40
2023-04-05T11:01:04.410Z,7.60
2023-04-05T11:06:24.504Z,7.60
2023-04-05T11:11:38.383Z,7.40
2023-04-05T11:17:11.137Z,7.10
2023-04-05T11:22:27.234Z,11.70
2023-04-05T11:27:31.915Z,7.80
2023-04-05T11:32:49.267Z,13.50
2023-04-05T11:38:02.169Z,8.90
2023-04-05T11:43:08.341Z,8.20
2023-04-05T11:48:16.010Z,7.40
2023-04-05T11:53:21.779Z,10.40
2023-04-05T11:58:35.803Z,6.80
2023-04-05T12:03:54.988Z,7.70
2023-04-05T12:09:08.996Z,10.50
2023-04-05T12:14:13.074Z,8.80
2023-04-05T12:19:33.622Z,8.80
2023-04-05T12:24:37.141Z,7.70
2023-04-05T12:30:44.950Z,7.70
2023-04-05T12:35:51.693Z,7.00
2023-04-05T12:41:34.791Z,8.10
2023-04-05T12:47:10.596Z,9.60
2023-04-05T12:52:47.750Z,10.10
2023-04-05T12:58:51.901Z,9.30
2023-04-05T13:04:35.815Z,9.10
2023-04-05T13:10:23.036Z,7.40
2023-04-05T13:16:07.209Z,10.00
2023-04-05T13:21:47.740Z,9.90
2023-04-05T13:27:21.387Z,8.50
2023-04-05T13:33:15.465Z,11.10
2023-04-05T13:38:43.531Z,9.00
2023-04-05T13:43:58.857Z,7.30
2023-04-05T13:49:15.734Z,7.10
2023-04-05T13:55:02.696Z,8.30
2023-04-05T14:00:14.816Z,8.30
2023-04-05T14:05:21.450Z,7.40
2023-04-05T14:10:24.855Z,9.10
2023-04-05T14:15:30.078Z,10.30
2023-04-05T14:20:33.746Z,10.20
2023-04-05T14:25:37.400Z,8.80
2023-04-05T14:31:31.203Z,13.20
2023-04-05T14:36:34.668Z,14.70
2023-04-05T14:41:58.671Z,12.30
2023-04-05T14:47:36.429Z,10.20
2023-04-05T14:52:42.680Z,11.10
2023-04-05T14:57:46.444Z,9.50
2023-04-05T15:02:56.129Z,10.20
2023-04-05T15:08:00.519Z,11.40
2023-04-05T15:13:06.599Z,10.60
2023-04-05T15:18:23.630Z,9.60
2023-04-05T15:23:47.490Z,13.10
2023-04-05T15:29:03.785Z,11.80
2023-04-05T15:34:20.510Z,14.90
2023-04-05T15:39:58.819Z,13.30
2023-04-05T15:45:07.678Z,16.30
2023-04-05T15:50:14.029Z,13.30
2023-04-05T15:55:20.326Z,15.90
2023-04-05T16:00:47.256Z,19.80
2023-04-05T16:05:51.474Z,11.40
2023-04-05T16:11:48.544Z,15.40
2023-04-05T16:17:55.392Z,13.70
2023-04-05T16:23:32.642Z,15.30
2023-04-05T16:29:16.778Z,13.70
2023-04-05T16:34:48.468Z,14.50
2023-04-05T16:40:15.644Z,13.90
2023-04-05T16:45:54.008Z,16.60
2023-04-05T16:51:48.047Z,23.30
2023-04-05T16:56:54.230Z,25.20
2023-04-05T17:02:14.320Z,29.40
2023-04-05T17:07:21.395Z,20.60
2023-04-05T17:12:28.150Z,26.50
2023-04-05T17:17:51.989Z,19.00
2023-04-05T17:23:36.648Z,16.20
2023-04-05T17:29:03.717Z,11.90
2023-04-05T17:34:09.585Z,19.70
2023-04-05T17:39:13.932Z,16.00
2023-04-05T17:44:17.414Z,10.90
2023-04-05T17:49:21.247Z,15.60
2023-04-05T17:54:30.682Z,22.80
2023-04-05T17:59:54.494Z,49.00
2023-04-05T18:05:01.073Z,26.90
2023-04-05T18:10:08.367Z,24.70
2023-04-05T18:15:18.598Z,23.60
2023-04-05T18:20:31.737Z,17.60
2023-04-05T18:26:31.896Z,14.50
2023-04-05T18:32:21.840Z,12.20
2023-04-05T18:37:27.748Z,10.90
2023-04-05T18:42:35.670Z,11.90
2023-04-05T18:48:01.322Z,9.30
2023-04-05T18:53:09.505Z,14.20
2023-04-05T18:58:13.318Z,13.70
2023-04-05T19:03:44.806Z,18.50
2023-04-05T19:09:08.963Z,18.30
2023-04-05T19:14:35.989Z,17.90
2023-04-05T19:19:53.773Z,17.20
2023-04-05T19:24:57.203Z,15.70
2023-04-05T19:30:07.175Z,13.10
2023-04-05T19:35:11.007Z,11.80
2023-04-05T19:40:27.531Z,12.30
2023-04-05T19:46:00.303Z,10.30
2023-04-05T19:51:36.481Z,15.50
2023-04-05T19:56:43.188Z,33.80
2023-04-05T20:07:19.517Z,14.50
2023-04-05T20:12:26.224Z,20.70
2023-04-05T20:17:29.779Z,19.00
2023-04-05T20:22:40.690Z,19.30
2023-04-05T20:27:51.275Z,10.00
2023-04-05T20:33:47.548Z,10.40
2023-04-05T20:39:07.642Z,19.20
2023-04-05T20:45:22.282Z,39.00
2023-04-05T20:56:40.095Z,17.60
2023-04-05T21:01:47.277Z,13.40
2023-04-05T21:07:14.509Z,9.00
2023-04-05T21:12:54.015Z,11.30
2023-04-05T21:18:16.017Z,9.90
2023-04-05T21:23:22.603Z,17.80
2023-04-05T21:28:28.868Z,11.10
2023-04-05T21:33:41.636Z,10.10
2023-04-05T21:39:11.773Z,7.10
2023-04-05T21:44:28.293Z,7.70
2023-04-05T21:49:31.601Z,8.80
2023-04-05T21:54:35.519Z,8.30
2023-04-05T21:59:42.430Z,13.70
2023-04-05T22:04:46.177Z,11.60
2023-04-05T22:09:49.670Z,9.70
2023-04-05T22:14:58.014Z,13.60
2023-04-05T22:20:05.166Z,9.30
2023-04-05T22:25:09.886Z,8.60
2023-04-05T22:30:20.521Z,9.70
2023-04-05T22:35:35.902Z,10.10
2023-04-05T22:40:44.940Z,9.50
2023-04-05T22:45:54.183Z,11.80
2023-04-05T22:51:00.988Z,11.60
2023-04-05T22:56:07.404Z,13.90
2023-04-05T23:01:13.521Z,9.30
2023-04-05T23:06:17.097Z,9.20
2023-04-05T23:11:22.723Z,7.40
2023-04-05T23:16:26.206Z,7.80
2023-04-05T23:21:29.597Z,8.50
2023-04-05T23:26:34.499Z,10.40
2023-04-05T23:31:37.974Z,7.10
2023-04-05T23:36:44.879Z,9.80
2023-04-05T23:42:08.894Z,7.40
2023-04-05T23:47:15.026Z,7.30
2023-04-05T23:52:50.060Z,9.40
2023-04-05T23:58:15.970Z,6.80
